Time;durP1;ratioP1;P1;durP2;ratioP2;P2;SDS_P1;SDS_P2;PMS_P1;PMS_P2;Temp;Humidity;BMP_temperature;BMP_pressure;BME280_temperature;BME280_humidity;BME280_pressure;Samples;Min_cycle;Max_cycle;Signal;HPM_P1;HPM_P2
2021/06/02 00:00:45;;;;;;;8.60;3.20;;;;;;;8.97;100.00;95637.09;1042665;28;20310;-70
2021/06/02 00:01:36;;;;;;;5.05;3.13;;;;;;;8.89;100.00;95628.97;1043213;28;20926;-70
2021/06/02 00:02:25;;;;;;;6.13;2.97;;;;;;;8.92;100.00;95642.31;1035280;28;20354;-71
2021/06/02 00:03:14;;;;;;;5.63;3.40;;;;;;;8.93;100.00;95632.66;1034426;28;20646;-70
2021/06/02 00:04:03;;;;;;;5.82;2.97;;;;;;;8.95;100.00;95631.34;1044556;28;20815;-71
2021/06/02 00:04:52;;;;;;;3.58;3.10;;;;;;;8.89;100.00;95642.84;1038398;28;20283;-70
2021/06/02 00:05:42;;;;;;;7.32;3.22;;;;;;;8.84;100.00;95634.94;1034506;28;20378;-70
2021/06/02 00:06:21;;;;;;;6.93;3.70;;;;;;;8.82;100.00;95644.88;1037866;28;20856;-71
2021/06/02 00:06:56;;;;;;;7.70;3.55;;;;;;;8.81;100.00;95634.66;1038832;28;20268;-70
2021/06/02 00:07:26;;;;;;;6.53;3.45;;;;;;;8.71;100.00;95627.53;1030950;28;20454;-70
2021/06/02 00:07:57;;;;;;;4.57;3.60;;;;;;;8.78;100.00;95635.94;1034379;28;20303;-70
2021/06/02 00:08:28;;;;;;;7.38;3.75;;;;;;;8.77;100.00;95637.00;1031845;28;20106;-71
2021/06/02 00:08:58;;;;;;;6.97;3.50;;;;;;;8.77;100.00;95631.78;1030876;28;20706;-70
2021/06/02 00:09:29;;;;;;;6.35;3.92;;;;;;;8.82;100.00;95633.63;1036848;28;20498;-70
2021/06/02 00:09:59;;;;;;;4.38;3.30;;;;;;;8.70;100.00;95629.38;1039157;28;20580;-70
2021/06/02 00:10:29;;;;;;;5.80;3.75;;;;;;;8.78;100.00;95635.16;1035204;28;20042;-72
2021/06/02 00:11:00;;;;;;;4.72;3.65;;;;;;;8.81;100.00;95634.66;1031818;28;20120;-70
2021/06/02 00:11:31;;;;;;;5.47;3.28;;;;;;;8.77;100.00;95628.38;1034557;28;20026;-69
2021/06/02 00:12:07;;;;;;;4.18;3.33;;;;;;;8.77;100.00;95637.00;1030679;28;20066;-70
2021/06/02 00:12:37;;;;;;;9.63;3.80;;;;;;;8.76;100.00;95632.03;1026171;28;20841;-70
2021/06/02 00:13:08;;;;;;;5.22;3.22;;;;;;;8.64;100.00;95613.91;1033201;28;20274;-71
2021/06/02 00:13:38;;;;;;;11.18;3.97;;;;;;;8.69;100.00;95622.56;1035509;28;20052;-70
2021/06/02 00:14:09;;;;;;;11.85;4.10;;;;;;;8.63;100.00;95620.97;1038955;28;20036;-70
2021/06/02 00:14:40;;;;;;;14.38;3.72;;;;;;;8.64;100.00;95621.75;1034576;28;20045;-70
2021/06/02 00:15:13;;;;;;;7.25;3.50;;;;;;;8.69;100.00;95627.81;1034833;28;20038;-70
2021/06/02 00:15:43;;;;;;;5.45;3.67;;;;;;;8.66;100.00;95633.53;1033171;28;20080;-71
2021/06/02 00:16:14;;;;;;;10.57;4.68;;;;;;;8.65;100.00;95625.94;1032767;28;20296;-70
2021/06/02 00:16:44;;;;;;;12.75;4.13;;;;;;;8.64;100.00;95624.38;1034692;28;20172;-70
2021/06/02 00:17:17;;;;;;;8.38;4.15;;;;;;;8.56;100.00;95617.00;1034729;28;20876;-70
2021/06/02 00:17:51;;;;;;;9.05;3.80;;;;;;;8.61;100.00;95625.66;1038720;28;20030;-70
2021/06/02 00:18:21;;;;;;;3.75;3.35;;;;;;;8.58;100.00;95620.91;1034787;28;20330;-70
2021/06/02 00:18:52;;;;;;;8.15;3.72;;;;;;;8.56;100.00;95628.25;1034835;28;20725;-70
2021/06/02 00:19:22;;;;;;;8.48;4.13;;;;;;;8.50;100.00;95619.56;1030561;28;20496;-71
2021/06/02 00:19:53;;;;;;;10.60;4.40;;;;;;;8.57;100.00;95629.81;1034292;28;20030;-70
2021/06/02 00:20:23;;;;;;;8.88;4.00;;;;;;;8.56;100.00;95622.25;1030890;28;20034;-70
2021/06/02 00:20:57;;;;;;;6.75;3.97;;;;;;;8.59;100.00;95622.53;1034700;28;20076;-70
2021/06/02 00:21:27;;;;;;;8.98;4.28;;;;;;;8.56;100.00;95609.16;1033214;28;20022;-70
2021/06/02 00:21:59;;;;;;;13.88;5.05;;;;;;;8.61;100.00;95617.03;1031342;28;20265;-72
2021/06/02 00:22:29;;;;;;;7.75;3.80;;;;;;;8.64;100.00;95622.53;1024934;28;20106;-70
2021/06/02 00:23:00;;;;;;;12.98;4.28;;;;;;;8.65;100.00;95621.50;1022979;28;20314;-71
2021/06/02 00:23:30;;;;;;;7.10;3.83;;;;;;;8.57;100.00;95619.34;1024650;28;20642;-69
2021/06/02 00:24:01;;;;;;;7.25;3.88;;;;;;;8.64;100.00;95627.75;1026906;28;20460;-70
2021/06/02 00:24:31;;;;;;;7.32;3.95;;;;;;;8.58;100.00;95610.47;1030957;28;20476;-70
2021/06/02 00:25:03;;;;;;;8.20;4.03;;;;;;;8.67;100.00;95618.63;1038498;28;20104;-70
2021/06/02 00:25:33;;;;;;;9.57;3.60;;;;;;;8.70;100.00;95624.16;1034586;28;20037;-70
2021/06/02 00:26:07;;;;;;;4.82;3.45;;;;;;;8.74;100.00;95617.34;1030667;28;20356;-70
2021/06/02 00:26:37;;;;;;;3.92;3.20;;;;;;;8.80;100.00;95618.19;1030352;28;20280;-72
2021/06/02 00:27:11;;;;;;;6.60;3.67;;;;;;;8.75;100.00;95612.91;1025832;28;20404;-70
2021/06/02 00:27:42;;;;;;;12.18;4.22;;;;;;;8.83;100.00;95622.13;1030496;28;20118;-70
2021/06/02 00:28:13;;;;;;;11.48;3.92;;;;;;;8.80;100.00;95620.78;1038864;28;20270;-71
2021/06/02 00:28:44;;;;;;;7.88;4.18;;;;;;;8.71;100.00;95599.56;1034403;28;20076;-70
2021/06/02 00:29:14;;;;;;;7.32;4.15;;;;;;;8.68;100.00;95607.91;1034576;28;20347;-70
2021/06/02 00:29:45;;;;;;;8.25;4.07;;;;;;;8.71;100.00;95611.84;1026632;28;20583;-70
2021/06/02 00:30:16;;;;;;;8.43;4.13;;;;;;;8.68;100.00;95610.50;1026933;28;20046;-71
2021/06/02 00:30:46;;;;;;;7.20;4.05;;;;;;;8.65;100.00;95613.66;1038676;28;20030;-71
2021/06/02 00:31:16;;;;;;;8.45;3.80;;;;;;;8.64;100.00;95614.69;1034640;28;20025;-71
2021/06/02 00:31:47;;;;;;;8.35;3.92;;;;;;;8.64;100.00;95619.91;1038375;28;20017;-70
2021/06/02 00:32:19;;;;;;;9.05;4.40;;;;;;;8.54;100.00;95598.94;1030743;28;20039;-70
2021/06/02 00:32:50;;;;;;;10.50;3.95;;;;;;;8.63;100.00;95607.88;1034758;28;20743;-70
2021/06/02 00:33:21;;;;;;;15.88;4.15;;;;;;;8.63;100.00;95612.34;1035030;28;20287;-71
2021/06/02 00:33:52;;;;;;;5.78;4.38;;;;;;;8.62;100.00;95614.16;1035992;28;20048;-70
2021/06/02 00:34:22;;;;;;;6.75;4.20;;;;;;;8.58;100.00;95610.47;1034677;28;20721;-71
2021/06/02 00:34:53;;;;;;;5.93;3.92;;;;;;;8.55;100.00;95611.00;1031048;28;20554;-70
2021/06/02 00:35:24;;;;;;;7.53;4.05;;;;;;;8.53;100.00;95613.06;1032308;28;20662;-69
2021/06/02 00:35:57;;;;;;;5.30;3.65;;;;;;;8.49;100.00;95618.00;1033966;28;20026;-70
2021/06/02 00:36:27;;;;;;;5.30;3.58;;;;;;;8.41;100.00;95607.22;1034858;28;20280;-71
2021/06/02 00:36:59;;;;;;;12.10;3.85;;;;;;;8.45;100.00;95613.50;1030208;28;20030;-70
2021/06/02 00:37:30;;;;;;;4.65;4.00;;;;;;;8.41;100.00;95609.84;1031191;28;20030;-70
2021/06/02 00:38:00;;;;;;;6.15;4.43;;;;;;;8.40;100.00;95609.06;1027066;28;20301;-70
2021/06/02 00:38:30;;;;;;;7.35;4.50;;;;;;;8.40;100.00;95619.50;1031301;28;20030;-74
2021/06/02 00:39:02;;;;;;;10.82;4.22;;;;;;;8.38;100.00;95610.34;1038336;28;20499;-70
2021/06/02 00:39:36;;;;;;;9.07;4.13;;;;;;;8.41;100.00;95610.63;1030793;28;20026;-70
2021/06/02 00:40:07;;;;;;;6.05;4.07;;;;;;;8.40;100.00;95613.50;1033614;28;20273;-71
2021/06/02 00:40:43;;;;;;;9.43;4.20;;;;;;;8.39;100.00;95615.31;1029200;28;20274;-70
2021/06/02 00:41:14;;;;;;;5.68;3.80;;;;;;;8.45;100.00;95611.72;1034815;28;20260;-70
2021/06/02 00:41:45;;;;;;;5.38;3.72;;;;;;;8.47;100.00;95608.84;1030854;28;20280;-72
2021/06/02 00:42:16;;;;;;;5.03;3.80;;;;;;;8.40;100.00;95603.81;1026226;28;20030;-71
2021/06/02 00:42:46;;;;;;;5.35;3.38;;;;;;;8.53;100.00;95613.06;1030255;28;20831;-70
2021/06/02 00:43:18;;;;;;;6.03;3.80;;;;;;;8.55;100.00;95611.00;1034909;28;20030;-71
2021/06/02 00:43:49;;;;;;;7.03;4.07;;;;;;;8.58;100.00;95610.47;1030852;28;20061;-71
2021/06/02 00:44:19;;;;;;;5.85;3.78;;;;;;;8.56;100.00;95609.16;1035106;28;20783;-70
2021/06/02 00:44:53;;;;;;;4.43;3.60;;;;;;;8.57;100.00;95614.13;1031074;28;20507;-72
2021/06/02 00:45:24;;;;;;;6.53;4.10;;;;;;;8.55;100.00;95602.34;1026153;28;20027;-70
2021/06/02 00:45:54;;;;;;;7.40;4.10;;;;;;;8.54;100.00;95613.84;1026066;28;20333;-70
2021/06/02 00:46:25;;;;;;;10.85;4.90;;;;;;;8.53;100.00;95610.44;1030263;28;20354;-72
2021/06/02 00:46:59;;;;;;;5.97;3.88;;;;;;;8.56;100.00;95609.94;1030869;28;20029;-70
2021/06/02 00:47:29;;;;;;;10.88;4.40;;;;;;;8.55;100.00;95605.75;1031603;28;20037;-70
2021/06/02 00:48:01;;;;;;;6.15;3.90;;;;;;;8.57;100.00;95614.13;1035504;28;20618;-70
2021/06/02 00:48:31;;;;;;;4.32;3.88;;;;;;;8.61;100.00;95612.56;1031789;28;20487;-70
2021/06/02 00:49:02;;;;;;;9.27;4.22;;;;;;;8.61;100.00;95609.97;1030542;28;20268;-70
2021/06/02 00:49:32;;;;;;;7.78;3.92;;;;;;;8.61;100.00;95598.72;1030715;28;20081;-70
2021/06/02 00:50:05;;;;;;;4.53;3.78;;;;;;;8.65;100.00;95611.06;1030911;28;20505;-72
2021/06/02 00:50:35;;;;;;;6.25;4.15;;;;;;;8.56;100.00;95596.09;1030437;28;20019;-70
2021/06/02 00:51:06;;;;;;;4.78;3.47;;;;;;;8.62;100.00;95611.56;1030695;28;20269;-70
2021/06/02 00:51:36;;;;;;;7.45;4.60;;;;;;;8.54;100.00;95598.94;1026798;28;20030;-70
2021/06/02 00:52:07;;;;;;;7.00;3.80;;;;;;;8.49;100.00;95591.06;1026733;28;20028;-70
2021/06/02 00:52:38;;;;;;;8.45;4.53;;;;;;;8.55;100.00;95608.38;1030188;28;20018;-71
2021/06/02 00:53:08;;;;;;;9.02;4.30;;;;;;;8.52;100.00;95608.88;1026699;28;20023;-70
2021/06/02 00:53:39;;;;;;;9.52;4.53;;;;;;;8.47;100.00;95608.84;1023176;28;20071;-71
2021/06/02 00:54:09;;;;;;;5.60;4.32;;;;;;;8.44;100.00;95612.72;1028872;28;20027;-70
2021/06/02 00:56:09;;;;;;;7.07;4.18;;;;;;;8.34;100.00;95611.84;1045974;28;20393;-70
2021/06/02 00:56:52;;;;;;;4.93;4.07;;;;;;;8.29;100.00;95612.63;1042940;28;20302;-70
2021/06/02 00:57:22;;;;;;;9.63;4.20;;;;;;;8.26;100.00;95606.06;1034634;28;20044;-70
2021/06/02 00:57:53;;;;;;;7.28;4.13;;;;;;;8.24;100.00;95605.50;1029610;28;20885;-70
2021/06/02 00:58:30;;;;;;;10.05;4.53;;;;;;;8.21;100.00;95603.38;1026766;28;20035;-70
2021/06/02 00:59:00;;;;;;;6.75;3.90;;;;;;;8.17;100.00;95607.53;1022923;28;20365;-70
2021/06/02 00:59:36;;;;;;;6.97;4.30;;;;;;;8.19;100.00;95605.47;1035260;28;20334;-71
2021/06/02 01:00:10;;;;;;;7.07;4.25;;;;;;;8.17;100.00;95612.78;1040681;28;20022;-71
2021/06/02 01:00:41;;;;;;;8.77;4.45;;;;;;;8.15;100.00;95606.22;1038721;28;20282;-70
2021/06/02 01:01:11;;;;;;;5.32;4.15;;;;;;;8.13;100.00;95614.31;1037365;28;20268;-71
2021/06/02 01:01:41;;;;;;;6.95;4.57;;;;;;;8.08;100.00;95611.69;1034470;28;20458;-70
2021/06/02 01:02:15;;;;;;;5.25;4.53;;;;;;;8.08;100.00;95603.84;1030926;28;20014;-70
2021/06/02 01:02:47;;;;;;;7.07;4.43;;;;;;;8.05;100.00;95606.94;1029515;28;20046;-71
2021/06/02 01:03:24;;;;;;;7.75;4.47;;;;;;;8.02;100.00;95608.22;1031435;28;20328;-70
2021/06/02 01:03:55;;;;;;;8.32;4.57;;;;;;;7.99;100.00;95610.56;1032183;28;20643;-70
2021/06/02 01:04:29;;;;;;;5.55;4.28;;;;;;;8.01;100.00;95601.44;1034394;28;20912;-71
2021/06/02 01:04:59;;;;;;;8.13;4.72;;;;;;;7.93;100.00;95590.63;1030697;28;20307;-71
2021/06/02 01:05:30;;;;;;;7.47;4.18;;;;;;;7.99;100.00;95603.50;1027884;28;20803;-70
2021/06/02 01:06:00;;;;;;;5.50;4.43;;;;;;;7.95;100.00;95601.66;1030130;28;20018;-73
2021/06/02 01:06:35;;;;;;;6.93;4.35;;;;;;;7.89;100.00;95592.19;1031409;28;20392;-70
2021/06/02 01:07:06;;;;;;;6.53;4.40;;;;;;;7.89;100.00;95602.63;1030590;28;20037;-71
2021/06/02 01:07:37;;;;;;;9.75;4.32;;;;;;;7.87;100.00;95594.25;1039931;28;20264;-69
2021/06/02 01:08:07;;;;;;;12.85;4.82;;;;;;;7.89;100.00;95597.41;1038794;28;20256;-71
2021/06/02 01:08:38;;;;;;;6.88;4.38;;;;;;;7.90;100.00;95598.97;1026806;28;20582;-69
2021/06/02 01:09:08;;;;;;;9.80;4.95;;;;;;;7.83;100.00;95588.72;1026558;28;20015;-69
2021/06/02 01:10:05;;;;;;;18.30;5.30;;;;;;;7.83;100.00;95599.19;1028462;28;20018;-70
2021/06/02 01:10:35;;;;;;;6.55;3.95;;;;;;;7.80;100.00;95595.22;1032078;28;20030;-71
2021/06/02 01:11:06;;;;;;;7.70;4.47;;;;;;;7.80;100.00;95594.44;1033884;28;20252;-71
2021/06/02 01:11:36;;;;;;;5.55;4.43;;;;;;;7.81;100.00;95590.78;1022700;29;20011;-70
2021/06/02 01:12:07;;;;;;;5.32;4.07;;;;;;;7.84;100.00;95595.53;1026840;28;20188;-70
2021/06/02 01:12:37;;;;;;;7.45;4.63;;;;;;;7.77;100.00;95590.50;1031131;28;20038;-70
2021/06/02 01:13:08;;;;;;;6.88;4.00;;;;;;;7.80;100.00;95595.22;1034491;28;20553;-70
2021/06/02 01:13:41;;;;;;;8.25;4.78;;;;;;;7.81;100.00;95596.00;1034814;28;20129;-69
2021/06/02 01:14:15;;;;;;;6.93;4.32;;;;;;;7.72;100.00;95581.84;1022745;29;20460;-69
2021/06/02 01:14:45;;;;;;;5.93;4.55;;;;;;;7.80;100.00;95600.44;1030579;28;20344;-70
2021/06/02 01:15:18;;;;;;;15.40;5.20;;;;;;;7.83;100.00;95599.19;1030659;28;20791;-70
2021/06/02 01:15:50;;;;;;;10.05;4.63;;;;;;;7.83;100.00;95593.97;1030738;28;20109;-70
2021/06/02 01:16:21;;;;;;;6.82;4.35;;;;;;;7.75;100.00;95592.59;1029136;28;21088;-70
2021/06/02 01:16:52;;;;;;;11.02;4.55;;;;;;;7.74;100.00;95591.00;1026657;28;20259;-70
2021/06/02 01:17:23;;;;;;;8.07;4.85;;;;;;;7.78;100.00;95597.31;1033733;28;20359;-69
2021/06/02 01:17:54;;;;;;;9.02;5.10;;;;;;;7.76;100.00;95593.38;1038379;28;20071;-70
2021/06/02 01:18:24;;;;;;;5.18;4.15;;;;;;;7.77;100.00;95598.34;1022632;29;20310;-72
2021/06/02 01:18:55;;;;;;;5.72;4.38;;;;;;;7.74;100.00;95604.06;1022986;29;20026;-70
2021/06/02 01:19:25;;;;;;;6.78;4.32;;;;;;;7.71;100.00;95596.75;1026833;28;20045;-70
2021/06/02 01:19:57;;;;;;;7.13;4.80;;;;;;;7.72;100.00;95598.31;1034788;28;20014;-71
2021/06/02 01:20:28;;;;;;;6.68;4.32;;;;;;;7.71;100.00;95596.75;1038853;28;20025;-70
2021/06/02 01:21:00;;;;;;;5.50;4.43;;;;;;;7.72;100.00;95598.31;1034782;28;20735;-70
2021/06/02 01:21:34;;;;;;;6.25;4.68;;;;;;;7.71;100.00;95598.53;1030037;28;20026;-70
2021/06/02 01:22:04;;;;;;;9.07;4.63;;;;;;;7.71;100.00;95601.97;1031462;28;20694;-72
2021/06/02 01:22:36;;;;;;;6.47;4.72;;;;;;;7.69;100.00;95598.78;1032153;28;20273;-70
2021/06/02 01:23:07;;;;;;;7.10;4.95;;;;;;;7.67;100.00;95600.84;1045205;28;20083;-70
2021/06/02 01:23:38;;;;;;;9.45;4.78;;;;;;;7.68;100.00;95602.44;1039497;28;20272;-70
2021/06/02 01:24:08;;;;;;;7.20;5.15;;;;;;;7.61;100.00;95586.16;1034930;28;20739;-70
2021/06/02 01:24:39;;;;;;;5.20;4.60;;;;;;;7.66;100.00;95598.50;1030864;28;20031;-69
2021/06/02 01:25:11;;;;;;;10.43;4.68;;;;;;;7.65;100.00;95592.50;1028214;28;20069;-72
2021/06/02 01:25:42;;;;;;;7.65;4.50;;;;;;;7.61;100.00;95585.38;1030023;28;20117;-72
2021/06/02 01:26:13;;;;;;;7.35;4.82;;;;;;;7.72;100.00;95600.13;1031054;28;20774;-70
2021/06/02 01:26:46;;;;;;;6.03;4.50;;;;;;;7.74;100.00;95601.44;1030198;28;20272;-70
2021/06/02 01:27:17;;;;;;;6.65;4.10;;;;;;;7.74;100.00;95596.22;1027209;28;20572;-70
2021/06/02 01:27:47;;;;;;;6.38;4.22;;;;;;;7.76;100.00;95601.22;1026853;28;20277;-70
2021/06/02 01:28:17;;;;;;;6.20;4.35;;;;;;;7.73;100.00;95599.09;1031369;28;20034;-71
2021/06/02 01:28:48;;;;;;;5.10;4.43;;;;;;;7.72;100.00;95598.31;1026298;28;20485;-70
2021/06/02 01:29:18;;;;;;;6.75;4.40;;;;;;;7.67;100.00;95597.47;1030776;28;20145;-70
2021/06/02 01:29:52;;;;;;;5.43;4.20;;;;;;;7.66;100.00;95583.63;1026638;28;20070;-70
2021/06/02 01:30:23;;;;;;;7.68;4.03;;;;;;;7.69;100.00;95598.78;1027018;28;20019;-70
2021/06/02 01:30:53;;;;;;;5.43;4.10;;;;;;;7.72;100.00;95605.34;1035278;28;20273;-69
2021/06/02 01:31:36;;;;;;;5.53;4.88;;;;;;;7.68;100.00;95607.69;1034782;28;20510;-70
2021/06/02 01:32:34;;;;;;;9.60;4.65;;;;;;;7.65;100.00;95610.78;1036479;28;20037;-70
2021/06/02 01:33:28;;;;;;;5.85;4.30;;;;;;;7.65;100.00;95602.94;1041108;28;20248;-72
2021/06/02 01:34:04;;;;;;;10.50;4.13;;;;;;;7.67;100.00;95598.25;1044067;28;20259;-70
2021/06/02 01:35:17;;;;;;;5.03;4.35;;;;;;;7.68;100.00;95602.44;1038805;28;20264;-70
2021/06/02 01:35:56;;;;;;;5.60;3.75;;;;;;;7.64;100.00;95598.75;1029732;28;20293;-70
2021/06/02 01:36:56;;;;;;;6.07;3.72;;;;;;;7.62;100.00;95600.81;1036228;28;20268;-70
2021/06/02 01:37:45;;;;;;;4.88;3.88;;;;;;;7.60;100.00;95607.31;1035140;28;20328;-69
2021/06/02 01:38:15;;;;;;;7.68;4.05;;;;;;;7.61;100.00;95598.44;1046890;28;20274;-69
2021/06/02 01:39:07;;;;;;;8.75;4.40;;;;;;;7.59;100.00;95598.69;1043306;28;20247;-72
2021/06/02 01:40:01;;;;;;;5.50;4.63;;;;;;;7.53;100.00;95597.06;1043004;28;20025;-70
2021/06/02 01:40:33;;;;;;;8.70;4.32;;;;;;;7.62;100.00;95602.66;1034182;28;20280;-70
2021/06/02 01:41:20;;;;;;;7.75;4.30;;;;;;;7.60;100.00;95600.28;1034767;28;20260;-71
2021/06/02 01:42:32;;;;;;;6.30;4.22;;;;;;;7.60;100.00;95605.50;1034541;28;20277;-72
2021/06/02 01:43:34;;;;;;;5.53;3.78;;;;;;;7.57;100.00;95600.75;1038037;28;20343;-70
2021/06/02 01:44:26;;;;;;;4.63;3.88;;;;;;;7.60;100.00;95602.09;1040669;28;20259;-70
2021/06/02 01:45:17;;;;;;;9.15;4.35;;;;;;;7.54;100.00;95603.84;1042095;28;20741;-70
2021/06/02 01:45:56;;;;;;;5.85;4.25;;;;;;;7.55;100.00;95610.69;1032710;28;21406;-75
2021/06/02 01:46:46;;;;;;;5.57;4.00;;;;;;;7.53;100.00;95604.91;1038577;28;20049;-70
2021/06/02 01:47:54;;;;;;;7.45;4.38;;;;;;;7.52;100.00;95608.56;1039206;28;20369;-72
2021/06/02 01:48:42;;;;;;;6.30;4.20;;;;;;;7.47;100.00;95605.88;1042778;28;20849;-71
2021/06/02 01:49:34;;;;;;;6.57;4.20;;;;;;;7.49;100.00;95606.44;1038218;28;20260;-70
2021/06/02 01:50:38;;;;;;;6.60;3.97;;;;;;;7.53;100.00;95608.31;1038862;28;20256;-70
2021/06/02 01:51:30;;;;;;;7.28;3.80;;;;;;;7.57;100.00;95617.22;1040966;28;20764;-70
2021/06/02 01:52:22;;;;;;;4.18;3.78;;;;;;;7.61;100.00;95614.09;1039092;28;20358;-70
2021/06/02 01:53:11;;;;;;;7.60;4.07;;;;;;;7.57;100.00;95604.16;1043134;28;20776;-70
2021/06/02 01:54:09;;;;;;;5.00;4.10;;;;;;;7.55;100.00;95605.47;1043156;28;20251;-73
2021/06/02 01:55:13;;;;;;;10.05;3.95;;;;;;;7.54;100.00;95609.09;1043120;28;20252;-70
2021/06/02 01:56:02;;;;;;;6.07;4.13;;;;;;;7.51;100.00;95604.34;1040373;28;20240;-70
2021/06/02 01:56:49;;;;;;;5.03;4.07;;;;;;;7.50;100.00;95608.78;1046556;28;20251;-71
2021/06/02 01:57:54;;;;;;;4.75;4.22;;;;;;;7.45;100.00;95607.97;1043530;28;20781;-70
2021/06/02 01:59:04;;;;;;;7.22;4.20;;;;;;;7.46;100.00;95609.53;1035023;28;20352;-70
2021/06/02 02:00:04;;;;;;;5.90;4.03;;;;;;;7.43;100.00;95608.19;1045205;28;20727;-70
2021/06/02 02:00:44;;;;;;;10.45;4.65;;;;;;;7.52;100.00;95605.94;1048248;28;20334;-70
2021/06/02 02:01:28;;;;;;;5.47;3.97;;;;;;;7.65;100.00;95605.56;1045201;28;20025;-70
2021/06/02 02:02:19;;;;;;;6.30;3.95;;;;;;;7.67;100.00;95606.06;1043631;28;20271;-70
2021/06/02 02:03:07;;;;;;;;;;;;;;;7.61;100.00;95609.66;1042674;28;20284;-70
2021/06/02 02:04:09;;;;;;;9.85;4.93;;;;;;;7.55;100.00;95608.84;1043789;28;19904;-69
2021/06/02 02:05:14;;;;;;;6.45;4.28;;;;;;;7.51;100.00;95609.56;1038564;28;20267;-70
2021/06/02 02:06:03;;;;;;;8.63;4.32;;;;;;;7.48;100.00;95602.25;1038530;28;20270;-70
2021/06/02 02:06:37;;;;;;;8.23;5.07;;;;;;;7.44;100.00;95601.16;1042554;28;20251;-70
2021/06/02 02:07:21;;;;;;;10.23;4.43;;;;;;;7.45;100.00;95602.75;1039168;28;20260;-71
2021/06/02 02:07:57;;;;;;;6.35;4.68;;;;;;;7.40;100.00;95600.84;1041124;28;21178;-70
2021/06/02 02:08:52;;;;;;;8.43;4.95;;;;;;;7.40;100.00;95602.69;1031373;28;20631;-70
2021/06/02 02:09:29;;;;;;;7.28;5.40;;;;;;;7.37;100.00;95603.16;1032358;28;20258;-71
2021/06/02 02:10:32;;;;;;;10.25;4.78;;;;;;;7.32;100.00;95601.31;1031951;28;20988;-70
2021/06/02 02:11:26;;;;;;;10.43;5.05;;;;;;;7.31;100.00;95599.75;1035368;28;20945;-70
2021/06/02 02:12:15;;;;;;;6.50;4.85;;;;;;;7.29;100.00;95602.56;1033830;28;20269;-71
2021/06/02 02:12:56;;;;;;;5.47;4.63;;;;;;;7.26;100.00;95610.88;1038215;28;20601;-72
2021/06/02 02:14:01;;;;;;;5.85;4.47;;;;;;;7.20;100.00;95609.25;1042319;28;21024;-70
2021/06/02 02:15:15;;;;;;;7.35;4.85;;;;;;;7.13;100.00;95600.03;1047543;28;20019;-70
2021/06/02 02:16:23;;;;;;;7.03;4.95;;;;;;;7.14;100.00;95609.44;1040346;28;20260;-70
2021/06/02 02:17:15;;;;;;;6.20;4.80;;;;;;;7.11;100.00;95607.31;1039378;28;20266;-70
2021/06/02 02:18:07;;;;;;;6.20;4.90;;;;;;;7.05;100.00;95599.44;1046725;28;20530;-70
2021/06/02 02:19:02;;;;;;;8.73;4.90;;;;;;;7.04;100.00;95612.72;1040744;28;20256;-69
2021/06/02 02:19:49;;;;;;;10.23;4.68;;;;;;;7.00;100.00;95611.63;1043494;28;20302;-70
2021/06/02 02:20:35;;;;;;;12.80;5.60;;;;;;;7.00;100.00;95606.41;1040993;28;20415;-69
2021/06/02 02:21:20;;;;;;;9.50;5.43;;;;;;;6.93;100.00;95600.59;1039129;28;20705;-69
2021/06/02 02:22:26;;;;;;;5.60;4.75;;;;;;;6.73;100.00;95575.81;1033323;28;20261;-69
2021/06/02 02:23:18;;;;;;;7.13;5.00;;;;;;;6.95;100.00;95611.56;1029337;28;20663;-70
2021/06/02 02:24:11;;;;;;;10.32;5.20;;;;;;;6.92;100.00;95615.44;1032254;28;21081;-70
2021/06/02 02:25:08;;;;;;;6.07;4.78;;;;;;;6.93;100.00;95611.03;1042170;28;20342;-71
2021/06/02 02:26:13;;;;;;;5.70;4.65;;;;;;;6.88;100.00;95610.97;1029263;28;20640;-69
2021/06/02 02:26:58;;;;;;;8.90;5.53;;;;;;;6.91;100.00;95613.06;1043349;28;20267;-71
2021/06/02 02:27:35;;;;;;;8.98;5.25;;;;;;;6.73;100.00;95591.47;1043751;28;20321;-70
2021/06/02 02:28:23;;;;;;;10.27;5.20;;;;;;;6.90;100.00;95619.31;1039323;28;20267;-71
2021/06/02 02:28:56;;;;;;;8.50;4.68;;;;;;;6.89;100.00;95620.38;1039527;28;20248;-70
2021/06/02 02:29:32;;;;;;;9.70;5.28;;;;;;;6.90;100.00;95616.72;1034703;28;20284;-70
2021/06/02 02:30:06;;;;;;;8.57;4.75;;;;;;;6.90;100.00;95621.94;1034873;28;20766;-70
2021/06/02 02:30:40;;;;;;;8.60;5.57;;;;;;;6.89;100.00;95620.38;1037601;28;20746;-70
2021/06/02 02:31:30;;;;;;;12.68;5.50;;;;;;;6.88;100.00;95619.59;1033209;28;20356;-70
2021/06/02 02:32:38;;;;;;;8.63;5.00;;;;;;;6.85;100.00;95623.44;1037923;28;20260;-69
2021/06/02 02:33:32;;;;;;;5.88;5.28;;;;;;;6.83;100.00;95624.72;1034950;28;20029;-69
2021/06/02 02:34:08;;;;;;;7.05;5.05;;;;;;;6.81;100.00;95624.19;1043753;28;20275;-69
2021/06/02 02:34:41;;;;;;;8.30;4.78;;;;;;;6.77;100.00;95621.28;1041295;28;20263;-70
2021/06/02 02:35:20;;;;;;;7.18;4.97;;;;;;;6.75;100.00;95615.50;1039870;28;20256;-70
2021/06/02 02:35:58;;;;;;;5.43;4.60;;;;;;;6.76;100.00;95622.28;1034520;28;21168;-70
2021/06/02 02:36:31;;;;;;;5.63;4.75;;;;;;;6.75;100.00;95625.16;1034978;28;20264;-70
2021/06/02 02:37:06;;;;;;;8.38;5.10;;;;;;;6.71;100.00;95617.00;1034876;28;20257;-71
2021/06/02 02:37:55;;;;;;;9.60;5.13;;;;;;;6.74;100.00;95632.19;1035247;28;20261;-69
2021/06/02 02:38:30;;;;;;;8.27;5.63;;;;;;;6.76;100.00;95624.88;1033449;28;20377;-69
2021/06/02 02:39:05;;;;;;;5.65;4.80;;;;;;;6.72;100.00;95623.81;1035509;28;20264;-70
2021/06/02 02:39:44;;;;;;;6.70;4.75;;;;;;;6.73;100.00;95627.97;1035530;28;20302;-70
2021/06/02 02:40:28;;;;;;;7.35;5.60;;;;;;;6.74;100.00;95624.38;1039145;28;20757;-70
2021/06/02 02:41:35;;;;;;;6.82;4.80;;;;;;;6.70;100.00;95623.25;1042520;28;20359;-70
2021/06/02 02:42:06;;;;;;;5.88;5.00;;;;;;;6.71;100.00;95624.06;1031020;28;20273;-69
2021/06/02 02:42:43;;;;;;;5.85;4.72;;;;;;;6.69;100.00;95629.50;1033554;28;20352;-70
2021/06/02 02:43:32;;;;;;;7.00;5.00;;;;;;;6.64;100.00;95616.41;1034220;28;20320;-70
2021/06/02 02:44:21;;;;;;;12.48;5.28;;;;;;;6.71;100.00;95634.47;1030791;28;20270;-69
2021/06/02 02:44:52;;;;;;;7.95;4.95;;;;;;;6.71;100.00;95635.28;1041198;28;20279;-71
2021/06/02 02:45:25;;;;;;;7.10;4.90;;;;;;;6.72;100.00;95634.22;1043398;28;20259;-70
2021/06/02 02:46:01;;;;;;;5.15;4.63;;;;;;;6.65;100.00;95619.78;1037641;28;20032;-70
2021/06/02 02:46:53;;;;;;;7.68;5.05;;;;;;;6.68;100.00;95633.13;1037019;28;20261;-70
2021/06/02 02:47:32;;;;;;;7.07;5.18;;;;;;;6.67;100.00;95636.75;1043436;28;20267;-70
2021/06/02 02:48:39;;;;;;;5.53;4.93;;;;;;;6.65;100.00;95630.22;1035356;28;20261;-70
2021/06/02 02:49:16;;;;;;;15.15;5.50;;;;;;;6.63;100.00;95627.84;1044315;28;20250;-72
2021/06/02 02:49:54;;;;;;;5.82;5.07;;;;;;;6.63;100.00;95630.44;1040202;28;20276;-70
2021/06/02 02:50:28;;;;;;;5.30;4.75;;;;;;;6.65;100.00;95627.63;1035148;28;20307;-73
2021/06/02 02:51:32;;;;;;;16.77;5.65;;;;;;;6.63;100.00;95622.63;1034312;28;20265;-71
2021/06/02 02:52:40;;;;;;;41.60;8.25;;;;;;;6.61;100.00;95624.69;1040252;28;20259;-70
2021/06/02 02:53:28;;;;;;;28.92;6.95;;;;;;;6.55;100.00;95615.22;1044334;28;20303;-70
2021/06/02 02:54:21;;;;;;;12.25;5.80;;;;;;;6.59;100.00;95629.34;1043515;28;20020;-71
2021/06/02 02:55:00;;;;;;;19.13;5.90;;;;;;;6.57;100.00;95631.41;1042742;28;20271;-72
2021/06/02 02:55:35;;;;;;;16.88;5.32;;;;;;;6.61;100.00;95624.69;1038075;28;20267;-70
2021/06/02 02:56:35;;;;;;;7.30;5.15;;;;;;;6.59;100.00;95626.75;1034649;28;20267;-71
2021/06/02 02:57:11;;;;;;;8.93;5.78;;;;;;;6.56;100.00;95625.41;1032280;28;20393;-70
2021/06/02 02:57:41;;;;;;;8.63;5.97;;;;;;;6.53;100.00;95627.69;1041620;28;20347;-70
2021/06/02 02:58:21;;;;;;;10.57;5.55;;;;;;;6.55;100.00;95633.47;1047503;28;20259;-70
2021/06/02 02:59:25;;;;;;;8.90;5.40;;;;;;;6.52;100.00;95634.72;1044920;28;20766;-70
2021/06/02 03:00:01;;;;;;;13.45;5.30;;;;;;;6.50;100.00;95646.41;1038987;28;20264;-70
2021/06/02 03:01:00;;;;;;;11.68;5.53;;;;;;;6.50;100.00;95641.22;1030848;28;20269;-70
2021/06/02 03:02:12;;;;;;;17.67;7.00;;;;;;;6.47;100.00;95634.69;1027911;28;20700;-70
2021/06/02 03:03:27;;;;;;;25.35;7.03;;;;;;;6.51;100.00;95640.19;1035505;28;20331;-70
2021/06/02 03:04:05;;;;;;;27.10;6.90;;;;;;;6.48;100.00;95645.88;1030781;28;20280;-70
2021/06/02 03:04:37;;;;;;;35.83;7.70;;;;;;;6.40;100.00;95634.03;1033174;28;20265;-70
2021/06/02 03:05:17;;;;;;;23.60;7.95;;;;;;;6.40;100.00;95626.22;1034661;28;20822;-70